Time;durP1;ratioP1;P1;durP2;ratioP2;P2;SDS_P1;SDS_P2;PMS_P1;PMS_P2;Temp;Humidity;BMP_temperature;BMP_pressure;BME280_temperature;BME280_humidity;BME280_pressure;Samples;Min_cycle;Max_cycle;Signal;HPM_P1;HPM_P2
2021/01/01 00:01:52;;;;;;;123.78;60.10;;;1.90;99.90;;;;;;5043342;28;20127;-73
2021/01/01 00:04:19;;;;;;;82.55;42.92;;;1.90;99.90;;;;;;5046543;28;20049;-74
2021/01/01 00:06:47;;;;;;;139.18;65.35;;;1.90;99.90;;;;;;5037752;28;20049;-73
2021/01/01 00:09:14;;;;;;;150.68;74.70;;;1.80;99.90;;;;;;5044323;28;20679;-74
2021/01/01 00:11:41;;;;;;;163.45;77.03;;;1.80;99.90;;;;;;5044753;28;20045;-75
2021/01/01 00:14:12;;;;;;;154.48;75.35;;;1.80;99.90;;;;;;5042879;28;20052;-73
2021/01/01 00:16:40;;;;;;;152.43;75.97;;;1.90;99.90;;;;;;5043862;28;20068;-75
2021/01/01 00:19:07;;;;;;;137.38;66.82;;;1.90;99.90;;;;;;5042167;28;20087;-75
2021/01/01 00:21:35;;;;;;;130.52;65.57;;;2.00;99.90;;;;;;5037472;28;20040;-73
2021/01/01 00:24:02;;;;;;;138.57;64.88;;;1.90;99.90;;;;;;5039143;28;20052;-74
2021/01/01 00:26:28;;;;;;;149.45;70.60;;;1.90;99.90;;;;;;5044344;28;20124;-74
2021/01/01 00:28:55;;;;;;;183.40;86.85;;;2.00;99.90;;;;;;5037114;28;20436;-74
2021/01/01 00:31:24;;;;;;;160.18;75.95;;;2.00;99.90;;;;;;5034101;28;20033;-74
2021/01/01 00:33:51;;;;;;;142.20;68.28;;;1.90;99.90;;;;;;5029648;28;20046;-73
2021/01/01 00:36:22;;;;;;;132.90;62.30;;;1.80;99.90;;;;;;5035461;28;20130;-74
2021/01/01 00:38:51;;;;;;;171.88;79.43;;;2.00;99.90;;;;;;5028286;28;20135;-73
2021/01/01 00:41:29;;;;;;;123.20;62.00;;;2.00;99.90;;;;;;5033524;28;20057;-74
2021/01/01 00:43:58;;;;;;;118.78;57.95;;;2.00;99.90;;;;;;5027314;28;20030;-74
2021/01/01 00:46:26;;;;;;;136.52;64.35;;;2.00;99.90;;;;;;5025924;28;20156;-74
2021/01/01 00:48:53;;;;;;;121.35;59.55;;;2.00;99.90;;;;;;5027340;28;20061;-72
2021/01/01 00:51:29;;;;;;;108.53;53.40;;;1.90;99.90;;;;;;5044788;28;20051;-73
2021/01/01 00:53:57;;;;;;;107.47;53.45;;;1.80;99.90;;;;;;5046423;28;20037;-74
2021/01/01 00:56:25;;;;;;;82.53;40.58;;;1.80;99.90;;;;;;5036967;28;20053;-74
2021/01/01 00:58:53;;;;;;;84.90;43.63;;;1.70;99.90;;;;;;5045368;28;20068;-74
2021/01/01 01:01:22;;;;;;;115.15;55.33;;;1.70;99.90;;;;;;5046273;28;20044;-72
2021/01/01 01:03:50;;;;;;;126.85;60.22;;;1.70;99.90;;;;;;5046069;28;20045;-74
2021/01/01 01:06:22;;;;;;;113.28;55.40;;;1.70;99.90;;;;;;5039597;28;20073;-74
2021/01/01 01:08:50;;;;;;;102.25;52.08;;;1.70;99.90;;;;;;5044548;28;20503;-73
2021/01/01 01:11:23;;;;;;;118.50;57.53;;;1.70;99.90;;;;;;5027074;28;20053;-73
2021/01/01 01:13:50;;;;;;;116.00;58.47;;;1.70;99.90;;;;;;5022998;28;20473;-73
2021/01/01 01:16:28;;;;;;;100.00;48.38;;;1.70;99.90;;;;;;5018505;28;20045;-74
2021/01/01 01:18:56;;;;;;;85.00;43.97;;;1.80;99.90;;;;;;5020990;28;20069;-74
2021/01/01 01:21:23;;;;;;;76.60;37.35;;;1.80;99.90;;;;;;5016937;28;20072;-73
2021/01/01 01:23:51;;;;;;;67.28;35.47;;;1.90;99.90;;;;;;5024853;28;20076;-72
2021/01/01 01:26:19;;;;;;;67.53;36.05;;;1.80;99.90;;;;;;5025616;28;20486;-72
2021/01/01 01:28:45;;;;;;;75.45;38.00;;;1.80;99.90;;;;;;5026526;28;20049;-72
2021/01/01 01:31:12;;;;;;;82.35;40.80;;;1.90;99.90;;;;;;5022436;28;20140;-74
2021/01/01 01:33:39;;;;;;;72.70;40.50;;;1.80;99.90;;;;;;5005746;28;20048;-74
2021/01/01 01:36:05;;;;;;;87.35;42.70;;;1.80;99.90;;;;;;5019590;28;20445;-74
2021/01/01 01:38:33;;;;;;;76.20;40.53;;;1.80;99.90;;;;;;5009873;28;20414;-74
2021/01/01 01:40:59;;;;;;;87.32;41.83;;;1.80;99.90;;;;;;5022052;28;20134;-73
2021/01/01 01:43:26;;;;;;;86.20;43.92;;;1.80;99.90;;;;;;5026589;28;20340;-73
2021/01/01 01:45:55;;;;;;;96.35;48.28;;;1.90;99.90;;;;;;5021518;28;20494;-72
2021/01/01 01:48:26;;;;;;;101.88;50.33;;;1.90;99.90;;;;;;5025138;28;20077;-72
2021/01/01 01:50:54;;;;;;;106.65;49.25;;;1.90;99.90;;;;;;5015327;28;20053;-72
2021/01/01 01:53:22;;;;;;;105.00;50.45;;;1.90;99.90;;;;;;5006327;28;20065;-72
2021/01/01 01:55:51;;;;;;;105.53;50.65;;;2.00;99.90;;;;;;5009225;28;20671;-72
2021/01/01 01:58:22;;;;;;;109.88;53.20;;;1.90;99.90;;;;;;5024442;28;20042;-73
2021/01/01 02:03:21;;;;;;;100.63;50.00;;;1.80;99.90;;;;;;5025451;28;20107;-73
2021/01/01 02:05:48;;;;;;;107.45;51.47;;;1.70;99.90;;;;;;5023471;28;20049;-72
2021/01/01 02:08:15;;;;;;;105.03;51.65;;;1.60;99.90;;;;;;5010030;28;20570;-72
2021/01/01 02:10:42;;;;;;;100.25;49.67;;;1.70;99.90;;;;;;5005229;28;20075;-73
2021/01/01 02:13:10;;;;;;;103.40;50.13;;;1.70;99.90;;;;;;5005665;28;20054;-73
2021/01/01 02:15:37;;;;;;;105.38;50.00;;;1.60;99.90;;;;;;5022384;28;20042;-72
2021/01/01 02:18:03;;;;;;;112.82;51.40;;;1.50;99.90;;;;;;5020753;28;20444;-72
2021/01/01 02:20:30;;;;;;;107.93;52.00;;;1.50;99.90;;;;;;5037218;28;20065;-73
2021/01/01 02:22:57;;;;;;;107.25;51.92;;;1.60;99.90;;;;;;5016642;28;20053;-72
2021/01/01 02:25:23;;;;;;;118.15;55.75;;;1.60;99.90;;;;;;5021126;28;20132;-72
2021/01/01 02:27:50;;;;;;;114.35;53.63;;;1.70;99.90;;;;;;5024049;28;20076;-72
2021/01/01 02:30:18;;;;;;;115.55;53.28;;;1.70;99.90;;;;;;5015671;28;20507;-72
2021/01/01 02:32:44;;;;;;;116.50;53.13;;;1.70;99.90;;;;;;5023282;28;20053;-72
2021/01/01 02:35:11;;;;;;;103.72;50.83;;;1.70;99.90;;;;;;5025033;28;20616;-72
2021/01/01 02:37:38;;;;;;;108.80;48.75;;;1.70;99.90;;;;;;5035781;28;20050;-72
2021/01/01 02:40:07;;;;;;;111.50;49.65;;;1.70;99.90;;;;;;5041012;28;20138;-73
2021/01/01 02:42:34;;;;;;;100.72;48.28;;;1.70;99.90;;;;;;5044526;28;20044;-73
2021/01/01 02:45:03;;;;;;;113.10;50.67;;;1.70;99.90;;;;;;5042498;28;20052;-71
2021/01/01 02:47:30;;;;;;;97.15;45.47;;;1.70;99.90;;;;;;5044672;28;20061;-72
2021/01/01 02:49:56;;;;;;;95.18;45.92;;;1.70;99.90;;;;;;5043525;28;20080;-71
2021/01/01 02:52:23;;;;;;;108.55;46.42;;;1.70;99.90;;;;;;5043416;28;20059;-72
2021/01/01 02:54:49;;;;;;;107.88;48.60;;;1.90;99.90;;;;;;5044318;28;20114;-71
2021/01/01 02:57:16;;;;;;;111.45;52.42;;;2.00;99.90;;;;;;5026623;28;20506;-74
2021/01/01 02:59:43;;;;;;;103.40;47.25;;;1.90;99.90;;;;;;5024254;28;20257;-71
2021/01/01 03:02:09;;;;;;;95.18;45.08;;;1.70;99.90;;;;;;5023400;28;20470;-73
2021/01/01 03:04:36;;;;;;;104.22;46.97;;;1.60;99.90;;;;;;5028184;28;20053;-71
2021/01/01 03:07:03;;;;;;;101.15;45.60;;;1.60;99.90;;;;;;5034518;28;20461;-73
2021/01/01 03:09:29;;;;;;;100.60;45.28;;;1.60;99.90;;;;;;5039671;28;20136;-72
2021/01/01 03:11:56;;;;;;;95.13;44.05;;;1.60;99.90;;;;;;5033362;28;20042;-74
2021/01/01 03:14:23;;;;;;;106.13;48.33;;;1.70;99.90;;;;;;5036010;28;20527;-72
2021/01/01 03:16:49;;;;;;;98.93;48.45;;;1.70;99.90;;;;;;5043389;28;20093;-74
2021/01/01 03:19:16;;;;;;;109.95;50.20;;;1.70;99.90;;;;;;5042719;28;20564;-71
2021/01/01 03:21:42;;;;;;;112.63;51.95;;;1.70;99.90;;;;;;5043100;28;20136;-72
2021/01/01 03:24:09;;;;;;;116.22;51.83;;;1.70;99.90;;;;;;5041340;28;20555;-73
2021/01/01 03:26:36;;;;;;;114.10;51.88;;;1.70;99.90;;;;;;5030718;28;20048;-72
2021/01/01 03:29:03;;;;;;;117.60;52.33;;;1.70;99.90;;;;;;5024644;28;20633;-72
2021/01/01 03:31:29;;;;;;;121.53;51.78;;;1.80;99.90;;;;;;5022519;28;20049;-72
2021/01/01 03:33:56;;;;;;;116.13;51.90;;;1.80;99.90;;;;;;5023452;28;20069;-72
2021/01/01 03:36:23;;;;;;;110.40;50.15;;;1.70;99.90;;;;;;5033187;28;20494;-72
2021/01/01 03:38:52;;;;;;;110.68;49.28;;;1.80;99.90;;;;;;5041316;28;20053;-72
2021/01/01 03:41:18;;;;;;;111.78;52.25;;;1.80;99.90;;;;;;5042560;28;20059;-72
2021/01/01 03:43:45;;;;;;;103.75;47.60;;;1.80;99.90;;;;;;5026934;28;20050;-72
2021/01/01 03:46:12;;;;;;;115.40;51.80;;;1.80;99.90;;;;;;5009660;28;20041;-72
2021/01/01 03:48:38;;;;;;;117.47;51.30;;;1.80;99.90;;;;;;5031909;28;20060;-72
2021/01/01 03:51:05;;;;;;;111.55;52.03;;;1.80;99.90;;;;;;5032432;28;20080;-72
2021/01/01 03:53:32;;;;;;;112.15;53.47;;;1.80;99.90;;;;;;5028405;28;20478;-73
2021/01/01 03:55:59;;;;;;;117.50;51.40;;;1.80;99.90;;;;;;5032407;28;20045;-71
2021/01/01 03:58:26;;;;;;;110.35;48.75;;;1.80;99.90;;;;;;5047888;28;20544;-73
2021/01/01 04:00:53;;;;;;;107.88;52.88;;;1.80;99.90;;;;;;5045760;28;20103;-72
2021/01/01 04:03:20;;;;;;;114.00;49.45;;;1.90;99.90;;;;;;5039819;28;20057;-72
2021/01/01 04:05:47;;;;;;;108.90;49.95;;;1.90;99.90;;;;;;5038759;28;20030;-72
2021/01/01 04:08:13;;;;;;;113.82;51.58;;;2.00;99.90;;;;;;5038298;28;20041;-72
2021/01/01 04:10:40;;;;;;;117.45;53.08;;;2.00;99.90;;;;;;5045663;28;20048;-72
2021/01/01 04:13:06;;;;;;;125.50;54.53;;;2.00;99.90;;;;;;5061881;28;20124;-72
2021/01/01 04:15:33;;;;;;;118.45;52.17;;;2.10;99.90;;;;;;5045399;28;20060;-72
2021/01/01 04:18:00;;;;;;;116.05;53.55;;;2.00;99.90;;;;;;5047281;28;20055;-72
2021/01/01 04:20:27;;;;;;;119.57;54.50;;;2.00;99.90;;;;;;5062747;28;20550;-72
2021/01/01 04:22:53;;;;;;;116.38;51.88;;;2.00;99.90;;;;;;5029668;28;20136;-71
2021/01/01 04:25:20;;;;;;;115.82;51.58;;;2.00;99.90;;;;;;5047158;28;20086;-71
2021/01/01 04:27:47;;;;;;;114.43;50.83;;;2.10;99.90;;;;;;5046970;28;20195;-72
2021/01/01 04:30:14;;;;;;;103.95;47.47;;;2.10;99.90;;;;;;5045071;28;20102;-71
2021/01/01 04:32:41;;;;;;;103.75;49.60;;;2.10;99.90;;;;;;5045799;28;20052;-71
2021/01/01 04:35:08;;;;;;;103.13;47.83;;;2.10;99.90;;;;;;5029078;28;20052;-72
2021/01/01 04:37:35;;;;;;;102.95;47.38;;;2.10;99.90;;;;;;5039210;28;20123;-71
2021/01/01 04:40:03;;;;;;;97.00;45.13;;;2.20;99.90;;;;;;5047254;28;20049;-72
2021/01/01 04:42:30;;;;;;;94.13;42.70;;;2.20;99.90;;;;;;5031619;28;20092;-72
2021/01/01 04:44:57;;;;;;;94.60;45.95;;;2.10;99.90;;;;;;5032867;28;20136;-73
2021/01/01 04:47:27;;;;;;;100.78;44.65;;;2.10;99.90;;;;;;5045157;28;20072;-73
2021/01/01 04:49:53;;;;;;;106.10;46.85;;;2.00;99.90;;;;;;5041044;28;20053;-73
2021/01/01 04:52:24;;;;;;;101.65;46.22;;;2.10;99.90;;;;;;5026805;28;20080;-73
2021/01/01 04:54:52;;;;;;;106.53;45.60;;;2.10;99.90;;;;;;5025366;28;20132;-74
2021/01/01 04:57:19;;;;;;;115.65;52.03;;;2.10;99.90;;;;;;5041071;28;20571;-73
2021/01/01 04:59:46;;;;;;;117.50;53.45;;;2.10;99.90;;;;;;5044578;28;20414;-72
2021/01/01 05:02:13;;;;;;;117.25;51.55;;;2.10;99.90;;;;;;5027617;28;20528;-73
2021/01/01 05:04:39;;;;;;;118.15;55.58;;;2.10;99.90;;;;;;5045486;28;20048;-73
2021/01/01 05:07:06;;;;;;;127.25;54.53;;;2.10;99.90;;;;;;5036708;28;20309;-73
2021/01/01 05:09:33;;;;;;;121.85;53.85;;;2.00;99.90;;;;;;5047161;28;20281;-73
2021/01/01 05:12:07;;;;;;;111.28;51.50;;;2.10;99.90;;;;;;5044749;28;20213;-73
2021/01/01 05:14:34;;;;;;;128.43;54.93;;;2.10;99.90;;;;;;5025040;28;20096;-72
2021/01/01 05:17:01;;;;;;;128.48;53.70;;;2.10;99.90;;;;;;5026017;28;20140;-72
2021/01/01 05:19:35;;;;;;;130.55;54.60;;;2.20;99.90;;;;;;5027757;28;20430;-73
2021/01/01 05:22:07;;;;;;;118.75;52.58;;;2.30;99.90;;;;;;5044681;28;20069;-73
2021/01/01 05:24:43;;;;;;;117.40;52.08;;;2.20;99.90;;;;;;5045391;28;20386;-73
2021/01/01 05:27:15;;;;;;;118.75;52.95;;;2.20;99.90;;;;;;5045525;28;20716;-73
2021/01/01 05:29:51;;;;;;;128.57;55.10;;;2.10;99.90;;;;;;5044768;28;20136;-72
2021/01/01 05:32:22;;;;;;;144.73;58.45;;;2.20;99.90;;;;;;5044491;28;20064;-73
2021/01/01 05:34:50;;;;;;;144.80;58.17;;;2.20;99.90;;;;;;5042911;28;20073;-72
2021/01/01 05:37:33;;;;;;;144.95;58.58;;;2.20;99.90;;;;;;5036976;28;20147;-73
2021/01/01 05:40:06;;;;;;;154.82;59.15;;;2.30;99.90;;;;;;5044878;28;20053;-73
2021/01/01 05:42:34;;;;;;;203.75;66.50;;;2.30;99.90;;;;;;5011896;28;20485;-73
2021/01/01 05:45:18;;;;;;;237.43;73.20;;;2.20;99.90;;;;;;5023820;28;20119;-74
2021/01/01 05:48:06;;;;;;;232.05;72.25;;;2.20;99.90;;;;;;5043565;28;20624;-73
2021/01/01 05:50:34;;;;;;;327.17;82.35;;;2.10;99.90;;;;;;5043500;28;20049;-72
2021/01/01 05:53:15;;;;;;;295.20;79.50;;;2.00;99.90;;;;;;5043131;28;20488;-73
2021/01/01 05:55:46;;;;;;;305.40;77.18;;;2.20;99.90;;;;;;5040193;28;20057;-72
2021/01/01 05:58:24;;;;;;;260.20;70.82;;;2.20;99.90;;;;;;5023273;28;20084;-72
2021/01/01 06:00:57;;;;;;;339.95;77.75;;;2.10;99.90;;;;;;5021600;28;20092;-72
2021/01/01 06:03:32;;;;;;;307.17;74.43;;;2.00;99.90;;;;;;5024687;28;20076;-72
2021/01/01 06:06:06;;;;;;;348.15;81.90;;;2.00;99.90;;;;;;5033989;28;20045;-73
2021/01/01 06:08:33;;;;;;;391.30;80.03;;;2.00;99.90;;;;;;5038442;28;20109;-73
2021/01/01 06:11:01;;;;;;;504.95;101.35;;;2.10;99.90;;;;;;5042295;28;20056;-72
2021/01/01 06:13:32;;;;;;;654.92;120.22;;;2.10;99.90;;;;;;5042771;28;20076;-72
2021/01/01 06:16:09;;;;;;;647.88;119.32;;;2.10;99.90;;;;;;5043698;28;20045;-72
2021/01/01 06:18:38;;;;;;;741.63;130.43;;;2.10;99.90;;;;;;5044994;28;20139;-72
2021/01/01 06:21:07;;;;;;;613.30;113.88;;;2.10;99.90;;;;;;5043518;28;20584;-72
2021/01/01 06:23:35;;;;;;;583.88;104.93;;;2.10;99.90;;;;;;5040532;28;20076;-72
2021/01/01 06:26:10;;;;;;;520.75;99.88;;;2.20;99.90;;;;;;5037542;28;20074;-72
2021/01/01 06:28:42;;;;;;;590.55;106.78;;;2.10;99.90;;;;;;5043017;28;20045;-72
2021/01/01 06:31:10;;;;;;;442.83;88.38;;;2.10;99.90;;;;;;5023958;28;20099;-72
2021/01/01 06:33:43;;;;;;;487.58;94.63;;;2.10;99.90;;;;;;5024637;28;20063;-73
2021/01/01 06:36:29;;;;;;;624.65;110.68;;;2.00;99.90;;;;;;5033732;28;20639;-72
2021/01/01 06:38:56;;;;;;;530.60;100.95;;;2.10;99.90;;;;;;5041906;28;20124;-73
2021/01/01 06:41:43;;;;;;;510.92;99.80;;;2.10;99.90;;;;;;5018864;28;567854;-74
2021/01/01 06:44:10;;;;;;;573.22;108.18;;;2.00;99.90;;;;;;5024626;28;20045;-72
2021/01/01 06:46:39;;;;;;;489.80;94.25;;;2.00;99.90;;;;;;5022786;28;20144;-72
2021/01/01 06:49:27;;;;;;;402.50;86.65;;;2.00;99.90;;;;;;5025069;28;20064;-72
2021/01/01 06:52:16;;;;;;;379.85;88.25;;;2.20;99.90;;;;;;5024418;28;20053;-72
2021/01/01 06:54:52;;;;;;;352.90;83.95;;;2.10;99.90;;;;;;5032598;28;20041;-72
2021/01/01 06:57:21;;;;;;;262.08;72.75;;;2.10;99.90;;;;;;5023264;28;20129;-72
2021/01/01 06:59:48;;;;;;;231.32;70.40;;;2.00;99.90;;;;;;5024247;28;20053;-73
2021/01/01 07:02:30;;;;;;;257.10;75.20;;;2.10;99.90;;;;;;5022771;28;20578;-72
2021/01/01 07:05:01;;;;;;;223.88;70.45;;;2.00;99.90;;;;;;5044782;28;20049;-72
2021/01/01 07:07:43;;;;;;;238.32;69.90;;;2.00;99.90;;;;;;5035083;28;20140;-71
2021/01/01 07:10:36;;;;;;;220.75;68.32;;;2.10;99.90;;;;;;5042225;28;20130;-72
2021/01/01 07:13:18;;;;;;;234.00;71.40;;;2.20;99.90;;;;;;5043191;28;20049;-73
2021/01/01 07:15:44;;;;;;;173.50;63.78;;;2.30;99.90;;;;;;5043902;28;20760;-71
2021/01/01 07:18:16;;;;;;;168.00;59.50;;;2.20;99.90;;;;;;5044637;28;20051;-72
2021/01/01 07:20:44;;;;;;;168.10;64.13;;;2.30;99.90;;;;;;5044119;28;20037;-72
2021/01/01 07:23:10;;;;;;;175.85;62.65;;;2.30;99.90;;;;;;5044307;28;20082;-71
2021/01/01 07:25:38;;;;;;;182.35;63.90;;;2.30;99.90;;;;;;5043949;28;20040;-73
2021/01/01 07:28:07;;;;;;;152.30;61.58;;;2.30;99.90;;;;;;5045454;28;20060;-73
2021/01/01 07:30:35;;;;;;;151.88;60.05;;;2.10;99.90;;;;;;5043522;28;20049;-73
2021/01/01 07:33:03;;;;;;;159.32;61.20;;;2.20;99.90;;;;;;5040198;28;20041;-72
2021/01/01 07:35:31;;;;;;;163.63;64.40;;;2.10;99.90;;;;;;5036363;28;20073;-72
2021/01/01 07:37:59;;;;;;;169.27;62.90;;;2.00;99.90;;;;;;5039076;28;20042;-73
2021/01/01 07:40:25;;;;;;;159.38;60.30;;;2.00;99.90;;;;;;5025096;28;20539;-72
2021/01/01 07:42:53;;;;;;;157.25;59.78;;;2.00;99.90;;;;;;5043166;28;20041;-72
2021/01/01 07:45:20;;;;;;;151.55;61.33;;;2.00;99.90;;;;;;5042043;28;20516;-72
2021/01/01 07:47:48;;;;;;;144.25;57.47;;;2.10;99.90;;;;;;5044615;28;20049;-72
2021/01/01 07:50:18;;;;;;;148.13;57.42;;;2.20;99.90;;;;;;5033731;28;20123;-72
2021/01/01 07:52:45;;;;;;;127.63;55.95;;;2.20;99.90;;;;;;5020453;28;20050;-72
2021/01/01 07:55:19;;;;;;;139.57;57.63;;;2.20;99.90;;;;;;5018425;28;20725;-72
2021/01/01 07:57:46;;;;;;;138.45;57.17;;;2.20;99.90;;;;;;5034335;28;20405;-72
2021/01/01 08:00:14;;;;;;;142.52;57.83;;;2.10;99.90;;;;;;5034627;28;20552;-72
2021/01/01 08:02:41;;;;;;;124.07;53.55;;;2.20;99.90;;;;;;5042101;28;20049;-72
2021/01/01 08:05:12;;;;;;;131.18;53.47;;;2.20;99.90;;;;;;5042097;28;20040;-72
2021/01/01 08:07:39;;;;;;;127.75;51.55;;;2.20;99.90;;;;;;5033079;28;20713;-72
2021/01/01 08:10:06;;;;;;;114.43;47.58;;;2.10;99.90;;;;;;5043670;28;20446;-72
2021/01/01 08:12:36;;;;;;;112.13;47.92;;;2.10;99.90;;;;;;5044025;28;20049;-72
2021/01/01 08:15:04;;;;;;;113.38;45.15;;;2.00;99.90;;;;;;5043026;28;20091;-71
2021/01/01 08:17:31;;;;;;;95.13;42.22;;;2.00;99.90;;;;;;5043554;28;20037;-72
2021/01/01 08:19:57;;;;;;;115.28;44.83;;;1.90;99.90;;;;;;5043293;28;20542;-72
2021/01/01 08:22:33;;;;;;;101.93;43.50;;;1.90;99.90;;;;;;5032200;28;20068;-71
2021/01/01 08:25:00;;;;;;;102.03;44.08;;;1.90;99.90;;;;;;5025475;28;20045;-71
2021/01/01 08:27:28;;;;;;;103.72;43.28;;;2.00;99.90;;;;;;5028998;28;20052;-71
2021/01/01 08:30:00;;;;;;;104.35;45.80;;;2.10;99.90;;;;;;5044460;28;20059;-71
2021/01/01 08:32:28;;;;;;;104.15;44.50;;;2.00;99.90;;;;;;5045644;28;20088;-73
2021/01/01 08:34:54;;;;;;;104.20;48.20;;;2.10;99.90;;;;;;5047760;28;20075;-72
2021/01/01 08:37:22;;;;;;;89.45;39.97;;;2.20;99.90;;;;;;5037576;28;20501;-72
2021/01/01 08:40:05;;;;;;;80.15;38.42;;;2.10;99.90;;;;;;5042927;28;20084;-72
2021/01/01 08:42:37;;;;;;;83.55;40.42;;;2.00;99.90;;;;;;5024322;28;20059;-73
2021/01/01 08:45:11;;;;;;;99.22;40.95;;;2.10;99.90;;;;;;5045011;28;20049;-73
2021/01/01 08:47:40;;;;;;;81.22;40.28;;;2.10;99.90;;;;;;5043102;28;20577;-72
2021/01/01 08:50:28;;;;;;;81.85;39.45;;;2.10;99.90;;;;;;5043820;28;20045;-72
2021/01/01 08:53:00;;;;;;;65.95;34.42;;;2.00;99.90;;;;;;5041421;28;20153;-73
2021/01/01 08:55:28;;;;;;;77.68;36.15;;;2.00;99.90;;;;;;5044210;28;20476;-72
2021/01/01 08:58:14;;;;;;;70.35;36.97;;;2.00;99.90;;;;;;5026407;28;20132;-72
2021/01/01 09:00:44;;;;;;;74.93;36.20;;;2.00;99.90;;;;;;5026285;28;20490;-73
2021/01/01 09:03:11;;;;;;;76.38;38.85;;;2.10;99.90;;;;;;5026408;28;20055;-72
2021/01/01 09:05:39;;;;;;;62.17;35.45;;;2.10;99.90;;;;;;5038549;28;20466;-73
2021/01/01 09:08:16;;;;;;;65.10;35.25;;;2.10;99.90;;;;;;5003328;28;20048;-72
2021/01/01 09:10:45;;;;;;;61.58;33.28;;;2.20;99.90;;;;;;5046588;28;20045;-72
2021/01/01 09:13:30;;;;;;;66.55;35.50;;;2.20;99.90;;;;;;5044912;28;20075;-73
2021/01/01 09:16:11;;;;;;;61.03;33.10;;;2.10;99.90;;;;;;5045715;28;20041;-72
2021/01/01 09:18:38;;;;;;;62.45;34.58;;;2.00;99.90;;;;;;5028955;28;20052;-72
2021/01/01 09:21:13;;;;;;;60.17;34.47;;;2.00;99.90;;;;;;5044616;28;20571;-72
2021/01/01 09:23:41;;;;;;;58.75;33.42;;;2.00;99.90;;;;;;5042788;28;20075;-72
2021/01/01 09:26:08;;;;;;;59.40;32.38;;;1.90;99.90;;;;;;5038540;28;20141;-72
2021/01/01 09:28:35;;;;;;;60.08;33.70;;;2.00;99.90;;;;;;5037055;28;20426;-72
2021/01/01 09:31:02;;;;;;;68.57;34.42;;;2.00;99.90;;;;;;5043947;28;20521;-73
2021/01/01 09:33:29;;;;;;;61.50;34.10;;;2.00;99.90;;;;;;5031534;28;20041;-72
2021/01/01 09:35:56;;;;;;;68.47;35.03;;;2.10;99.90;;;;;;5023825;28;20053;-72
2021/01/01 09:38:23;;;;;;;65.07;33.97;;;2.10;99.90;;;;;;5022776;28;20106;-72
2021/01/01 09:40:50;;;;;;;63.30;34.85;;;2.20;99.90;;;;;;5042386;28;20128;-73
2021/01/01 09:43:16;;;;;;;63.55;34.80;;;2.20;99.90;;;;;;5046391;28;20468;-72
2021/01/01 09:45:43;;;;;;;70.07;35.17;;;2.20;99.90;;;;;;5044966;28;20608;-72
2021/01/01 09:48:10;;;;;;;68.47;34.60;;;2.20;99.90;;;;;;5042960;28;20041;-72
2021/01/01 09:50:36;;;;;;;56.55;29.48;;;2.20;99.90;;;;;;5035989;28;20077;-71
2021/01/01 09:53:03;;;;;;;51.30;30.27;;;2.00;99.90;;;;;;5041517;28;20183;-72
2021/01/01 09:55:30;;;;;;;50.35;27.25;;;2.10;99.90;;;;;;5039993;28;20049;-71
2021/01/01 09:57:56;;;;;;;49.97;30.45;;;2.00;99.90;;;;;;5032869;28;20133;-72
2021/01/01 10:00:23;;;;;;;45.20;30.20;;;2.00;99.90;;;;;;5043638;28;20393;-72
2021/01/01 10:02:49;;;;;;;50.35;30.63;;;2.10;99.90;;;;;;5043095;28;20048;-73
2021/01/01 10:05:16;;;;;;;51.22;31.75;;;2.10;99.90;;;;;;5043910;28;20521;-72
2021/01/01 10:07:43;;;;;;;54.25;31.75;;;2.20;99.90;;;;;;5035770;28;20138;-72
2021/01/01 10:10:10;;;;;;;53.35;32.45;;;2.30;99.90;;;;;;5036274;28;20169;-72
2021/01/01 10:12:37;;;;;;;49.78;30.83;;;2.40;99.90;;;;;;5037118;28;20154;-72
2021/01/01 10:15:04;;;;;;;55.38;32.40;;;2.30;99.90;;;;;;5040716;28;20041;-72
2021/01/01 10:17:30;;;;;;;58.10;32.95;;;2.30;99.90;;;;;;5034139;28;20049;-70
2021/01/01 10:19:57;;;;;;;63.95;35.97;;;2.30;99.90;;;;;;5043242;28;20049;-71
2021/01/01 10:22:25;;;;;;;58.80;33.85;;;2.40;99.90;;;;;;5044111;28;20294;-72
2021/01/01 10:24:51;;;;;;;51.00;29.48;;;2.30;99.90;;;;;;5043854;28;20072;-74
2021/01/01 10:27:18;;;;;;;51.17;29.50;;;2.20;99.90;;;;;;5062975;28;20060;-74
2021/01/01 10:29:44;;;;;;;45.88;29.15;;;2.10;99.90;;;;;;5042839;28;20143;-73
2021/01/01 10:32:12;;;;;;;48.75;31.27;;;2.10;99.90;;;;;;5025756;28;20700;-71
2021/01/01 10:34:43;;;;;;;50.05;31.63;;;2.10;99.90;;;;;;5044995;28;20522;-72
2021/01/01 10:37:11;;;;;;;51.08;32.00;;;2.20;99.90;;;;;;5034841;28;20535;-72
2021/01/01 10:39:40;;;;;;;55.13;34.60;;;2.30;99.90;;;;;;5042595;28;20325;-72
2021/01/01 10:42:07;;;;;;;57.38;34.38;;;2.40;99.90;;;;;;5036622;28;20122;-72
2021/01/01 10:44:36;;;;;;;72.70;40.55;;;2.40;99.90;;;;;;5034194;28;20079;-72
2021/01/01 10:47:03;;;;;;;58.85;34.72;;;2.30;99.90;;;;;;5039790;28;20045;-71
2021/01/01 10:49:29;;;;;;;54.85;32.60;;;2.20;99.90;;;;;;5044558;28;20453;-72
2021/01/01 10:51:58;;;;;;;55.08;34.35;;;2.10;99.90;;;;;;5059436;28;20056;-72
2021/01/01 10:54:25;;;;;;;60.60;34.85;;;2.00;99.90;;;;;;5062763;28;20056;-72
2021/01/01 10:56:52;;;;;;;72.90;39.97;;;2.00;99.90;;;;;;5033547;28;20057;-71
2021/01/01 10:59:22;;;;;;;74.75;38.65;;;2.00;99.90;;;;;;5026800;28;20240;-72
2021/01/01 11:01:53;;;;;;;73.32;39.90;;;2.10;99.90;;;;;;5043176;28;20049;-70
2021/01/01 11:04:19;;;;;;;83.05;39.60;;;2.10;99.90;;;;;;5037869;28;20510;-71
2021/01/01 11:06:46;;;;;;;66.72;38.85;;;2.10;99.90;;;;;;5039310;28;20055;-71
2021/01/01 11:09:13;;;;;;;73.93;39.30;;;2.20;99.90;;;;;;5035849;28;20152;-71
2021/01/01 11:11:40;;;;;;;77.80;42.92;;;2.30;99.90;;;;;;5043920;28;20298;-71
2021/01/01 11:14:15;;;;;;;73.38;42.92;;;2.30;99.90;;;;;;5044580;28;20045;-71
2021/01/01 12:25:26;;;;;;;65.22;33.95;;;2.10;99.90;;;;;;5044901;28;20192;-71
2021/01/01 12:27:56;;;;;;;55.63;29.90;;;2.10;99.90;;;;;;5045534;28;20076;-71
2021/01/01 12:30:26;;;;;;;63.92;34.03;;;2.00;99.90;;;;;;5046875;28;20052;-71
2021/01/01 12:32:53;;;;;;;58.60;32.00;;;2.10;99.90;;;;;;5047261;28;20049;-72
2021/01/01 12:35:20;;;;;;;67.03;32.97;;;2.00;99.90;;;;;;5028855;28;20053;-71
2021/01/01 12:38:01;;;;;;;66.35;34.55;;;2.00;99.90;;;;;;5037297;28;20671;-72
2021/01/01 12:40:29;;;;;;;60.72;34.33;;;2.00;99.90;;;;;;5028645;28;20597;-72
2021/01/01 12:42:56;;;;;;;76.38;38.35;;;1.90;99.90;;;;;;5046769;28;20049;-72
2021/01/01 12:45:23;;;;;;;70.68;37.95;;;1.90;99.90;;;;;;5047028;28;20095;-72
2021/01/01 12:47:51;;;;;;;70.88;37.95;;;2.00;99.90;;;;;;5046817;28;20053;-71
2021/01/01 12:50:19;;;;;;;76.00;37.60;;;2.10;99.90;;;;;;5040502;28;20049;-71
2021/01/01 12:52:53;;;;;;;71.57;36.22;;;2.20;99.90;;;;;;5024924;28;20165;-71
2021/01/01 12:55:20;;;;;;;76.47;39.90;;;2.20;99.90;;;;;;5026555;28;20049;-71
2021/01/01 12:57:47;;;;;;;77.45;38.45;;;2.30;99.90;;;;;;5032748;28;20052;-72
2021/01/01 13:00:15;;;;;;;79.18;37.25;;;2.30;99.90;;;;;;5061461;28;20424;-71
2021/01/01 13:02:41;;;;;;;68.18;38.17;;;2.40;99.90;;;;;;5044200;28;20048;-72
2021/01/01 13:05:09;;;;;;;74.45;38.78;;;2.50;99.90;;;;;;5046278;28;20102;-72
2021/01/01 13:07:37;;;;;;;81.80;39.83;;;2.60;99.90;;;;;;5036597;28;20033;-72
2021/01/01 13:10:06;;;;;;;80.78;39.55;;;2.60;99.90;;;;;;5028756;28;20163;-72
2021/01/01 13:12:32;;;;;;;78.72;41.53;;;2.70;99.90;;;;;;5046444;28;20051;-72
2021/01/01 13:14:59;;;;;;;72.70;39.33;;;2.80;99.90;;;;;;5045933;28;20064;-72
2021/01/01 13:17:26;;;;;;;74.60;40.72;;;2.80;99.90;;;;;;5043668;28;20063;-71
2021/01/01 13:19:53;;;;;;;74.38;37.50;;;2.70;99.90;;;;;;5046722;28;20049;-72
2021/01/01 13:22:19;;;;;;;75.45;39.55;;;2.60;99.90;;;;;;5044118;28;20289;-74
2021/01/01 13:24:46;;;;;;;84.10;42.00;;;2.70;99.90;;;;;;5043192;28;20144;-73
2021/01/01 13:27:12;;;;;;;87.85;42.92;;;2.60;99.90;;;;;;5042535;28;20147;-72
2021/01/01 13:29:39;;;;;;;82.70;40.70;;;2.70;99.90;;;;;;5044132;28;20448;-71
2021/01/01 13:32:05;;;;;;;80.38;41.55;;;2.50;99.90;;;;;;5042568;28;20513;-72
2021/01/01 13:34:32;;;;;;;79.78;40.95;;;2.60;99.90;;;;;;5027449;28;20153;-72
2021/01/01 13:36:58;;;;;;;81.38;42.50;;;2.70;99.90;;;;;;5037664;28;20088;-72
2021/01/01 13:39:25;;;;;;;83.85;42.03;;;2.70;99.90;;;;;;5035329;28;20459;-72
2021/01/01 13:41:51;;;;;;;83.72;41.92;;;2.70;99.90;;;;;;5021423;28;20051;-72
2021/01/01 13:44:18;;;;;;;87.10;41.70;;;2.70;99.90;;;;;;5043797;28;20080;-72
2021/01/01 13:46:44;;;;;;;88.95;44.92;;;2.70;99.90;;;;;;5042930;28;20081;-71
2021/01/01 13:49:11;;;;;;;84.10;41.38;;;2.60;99.90;;;;;;5045421;28;20106;-72
2021/01/01 13:51:38;;;;;;;89.78;43.17;;;2.60;99.90;;;;;;5045274;28;20075;-72